createdAt,value
2022-08-17T00:00:24.941Z,87.5
2022-08-17T00:01:34.098Z,87.5
2022-08-17T00:02:43.290Z,87.5
2022-08-17T00:03:52.451Z,87
2022-08-17T00:05:01.618Z,87
2022-08-17T00:06:09.814Z,87.5
2022-08-17T00:07:18.984Z,87.5
2022-08-17T00:08:27.179Z,87.5
2022-08-17T00:09:36.353Z,87
2022-08-17T00:10:45.521Z,88
2022-08-17T00:11:54.695Z,88.5
2022-08-17T00:13:03.863Z,88.5
2022-08-17T00:14:13.042Z,89
2022-08-17T00:15:22.221Z,89.5
2022-08-17T00:16:31.386Z,89
2022-08-17T00:17:40.572Z,89
2022-08-17T00:18:49.742Z,88.5
2022-08-17T00:19:58.910Z,89
2022-08-17T00:21:08.083Z,89
2022-08-17T00:22:17.250Z,88.5
2022-08-17T00:23:25.440Z,88.5
2022-08-17T00:24:34.607Z,88.5
2022-08-17T00:25:43.785Z,88.5
2022-08-17T00:26:52.960Z,89
2022-08-17T00:28:02.136Z,89
2022-08-17T00:29:11.301Z,89
2022-08-17T00:30:20.480Z,89
2022-08-17T00:31:29.640Z,89
2022-08-17T00:32:38.831Z,89
2022-08-17T00:33:47.999Z,89
2022-08-17T00:34:57.173Z,90
2022-08-17T00:36:06.349Z,90.5
2022-08-17T00:37:15.521Z,91.5
2022-08-17T00:38:23.695Z,90
2022-08-17T00:39:32.862Z,88.5
2022-08-17T00:40:42.047Z,88.5
2022-08-17T00:41:51.217Z,88
2022-08-17T00:43:00.385Z,88.5
2022-08-17T00:44:09.557Z,88
2022-08-17T00:45:18.736Z,88.5
2022-08-17T00:46:27.894Z,88.5
2022-08-17T00:47:37.072Z,89
2022-08-17T00:48:46.263Z,88.5
2022-08-17T00:49:55.423Z,89.5
2022-08-17T00:51:04.594Z,89.5
2022-08-17T00:52:13.765Z,89.5
2022-08-17T00:53:21.971Z,89
2022-08-17T00:54:31.131Z,89.5
2022-08-17T00:55:40.304Z,90
2022-08-17T00:56:49.476Z,90.5
2022-08-17T00:57:58.646Z,90
2022-08-17T00:59:07.815Z,89
2022-08-17T01:00:16.999Z,89.5
2022-08-17T01:01:26.162Z,90
2022-08-17T01:02:35.377Z,90
2022-08-17T01:03:44.511Z,90
2022-08-17T01:04:53.679Z,92
2022-08-17T01:06:02.849Z,92
2022-08-17T01:07:12.018Z,91
2022-08-17T01:08:20.210Z,91
2022-08-17T01:09:29.385Z,90.5
2022-08-17T01:10:38.559Z,90.5
2022-08-17T01:11:47.729Z,90.5
2022-08-17T01:12:56.920Z,90
2022-08-17T01:14:06.079Z,90.5
2022-08-17T01:15:15.256Z,90
2022-08-17T01:16:24.422Z,89
2022-08-17T01:17:33.597Z,89.5
2022-08-17T01:18:42.776Z,90
2022-08-17T01:19:51.966Z,90
2022-08-17T01:21:01.130Z,90.5
2022-08-17T01:22:10.292Z,90
2022-08-17T01:23:18.487Z,90.5
2022-08-17T01:24:27.653Z,91
2022-08-17T01:25:36.827Z,91
2022-08-17T01:26:45.998Z,91
2022-08-17T01:27:55.161Z,91.5
2022-08-17T01:29:04.348Z,91
2022-08-17T01:30:13.512Z,91
2022-08-17T01:31:22.690Z,90.5
2022-08-17T01:32:31.852Z,90.5
2022-08-17T01:33:41.023Z,91.5
2022-08-17T01:34:50.193Z,92
2022-08-17T01:35:59.379Z,91.5
2022-08-17T01:37:08.548Z,92.5
2022-08-17T01:38:16.729Z,92.5
2022-08-17T01:39:25.906Z,91.5
2022-08-17T01:40:35.075Z,91.5
2022-08-17T01:41:44.249Z,91.5
2022-08-17T01:42:53.425Z,92
2022-08-17T01:44:02.595Z,92.5
2022-08-17T01:45:11.775Z,92.5
2022-08-17T01:46:20.948Z,92.5
2022-08-17T01:47:30.116Z,92.5
2022-08-17T01:48:39.301Z,93
2022-08-17T01:49:48.457Z,93
2022-08-17T01:50:57.631Z,93
2022-08-17T01:52:06.802Z,93.5
2022-08-17T01:53:14.996Z,94.5
2022-08-17T01:54:24.159Z,94
2022-08-17T01:55:33.336Z,93.5
2022-08-17T01:56:42.518Z,94
2022-08-17T01:57:51.683Z,94.5
2022-08-17T01:59:00.863Z,94
2022-08-17T02:00:10.022Z,94.5
2022-08-17T02:01:19.208Z,94
2022-08-17T02:02:28.383Z,94
2022-08-17T02:03:37.540Z,94.5
2022-08-17T02:04:46.718Z,94.5
2022-08-17T02:05:55.894Z,94.5
2022-08-17T02:07:05.084Z,94.5
2022-08-17T02:08:13.248Z,95
2022-08-17T02:09:22.414Z,95
2022-08-17T02:10:31.604Z,95.5
2022-08-17T02:11:40.761Z,95.5
2022-08-17T02:12:49.935Z,96
2022-08-17T02:13:59.104Z,96
2022-08-17T02:15:08.282Z,96
2022-08-17T02:16:17.447Z,96
2022-08-17T02:17:26.630Z,96
2022-08-17T02:18:35.803Z,96
2022-08-17T02:19:44.969Z,95.5
2022-08-17T02:20:54.147Z,95.5
2022-08-17T02:22:03.313Z,95.5
2022-08-17T02:23:11.499Z,96
2022-08-17T02:24:20.677Z,96
2022-08-17T02:25:29.845Z,96
2022-08-17T02:26:39.021Z,95.5
2022-08-17T02:27:48.183Z,95.5
2022-08-17T02:28:57.359Z,95.5
2022-08-17T02:30:06.544Z,95.5
2022-08-17T02:31:15.716Z,95.5
2022-08-17T02:32:24.893Z,95.5
2022-08-17T02:33:34.064Z,95.5
2022-08-17T02:34:43.242Z,96
2022-08-17T02:35:52.399Z,96
2022-08-17T02:37:01.591Z,96.5
2022-08-17T02:38:09.761Z,96.5
2022-08-17T02:39:18.932Z,96
2022-08-17T02:40:28.120Z,96.5
2022-08-17T02:41:37.280Z,96.5
2022-08-17T02:42:46.450Z,96.5
2022-08-17T02:43:55.629Z,96.5
2022-08-17T02:45:04.789Z,96
2022-08-17T02:46:13.977Z,96
2022-08-17T02:47:23.137Z,96
2022-08-17T02:48:32.307Z,96
2022-08-17T02:49:41.474Z,96
2022-08-17T02:50:50.672Z,96
2022-08-17T02:51:59.849Z,96
2022-08-17T02:53:08.016Z,96.5
2022-08-17T02:54:17.189Z,97
2022-08-17T02:55:26.358Z,97
2022-08-17T02:57:44.708Z,97.5
2022-08-17T02:58:53.880Z,97
2022-08-17T03:00:03.051Z,97
2022-08-17T03:01:12.215Z,97
2022-08-17T03:02:21.395Z,97.5
2022-08-17T03:03:30.570Z,97.5
2022-08-17T03:04:39.737Z,98
2022-08-17T03:05:48.908Z,97.5
2022-08-17T03:06:58.081Z,97.5
2022-08-17T03:08:06.273Z,97.5
2022-08-17T03:09:15.446Z,97.5
2022-08-17T03:10:24.629Z,97.5
2022-08-17T03:11:33.783Z,97.5
2022-08-17T03:12:42.962Z,97
2022-08-17T03:13:52.130Z,97
2022-08-17T03:15:01.308Z,97
2022-08-17T03:16:10.482Z,97.5
2022-08-17T03:17:19.687Z,97.5
2022-08-17T03:18:28.825Z,98
2022-08-17T03:19:38.002Z,98
2022-08-17T03:20:47.161Z,98
2022-08-17T03:21:56.341Z,98.5
2022-08-17T03:23:04.527Z,98.5
2022-08-17T03:24:13.698Z,98.5
2022-08-17T03:25:22.866Z,99
2022-08-17T03:26:32.044Z,99
2022-08-17T03:27:41.215Z,99.5
2022-08-17T03:28:50.396Z,99.5
2022-08-17T03:29:59.570Z,99.5
2022-08-17T03:31:08.739Z,99.5
2022-08-17T03:32:17.921Z,99.5
2022-08-17T03:33:27.076Z,99.5
2022-08-17T03:34:36.251Z,99
2022-08-17T03:35:45.420Z,99
2022-08-17T03:36:54.592Z,99
2022-08-17T03:38:02.784Z,99
2022-08-17T03:39:11.966Z,99.5
2022-08-17T03:40:21.123Z,99.5
2022-08-17T03:41:30.301Z,99.5
2022-08-17T03:42:39.472Z,99.5
2022-08-17T03:43:48.652Z,99.5
2022-08-17T03:44:57.824Z,99.5
2022-08-17T03:46:06.998Z,99.5
2022-08-17T03:47:16.164Z,99.5
2022-08-17T03:48:25.331Z,99.5
2022-08-17T03:49:34.499Z,99.5
2022-08-17T03:50:43.676Z,99.5
2022-08-17T03:51:52.849Z,99.5
2022-08-17T03:53:01.052Z,99.5
2022-08-17T03:54:10.217Z,99.5
2022-08-17T03:55:19.381Z,99
2022-08-17T03:56:27.574Z,99
2022-08-17T03:57:35.767Z,98.5
2022-08-17T03:58:44.943Z,98.5
2022-08-17T03:59:53.127Z,98.5
2022-08-17T04:01:02.309Z,98.5
2022-08-17T04:02:10.511Z,98.5
2022-08-17T04:03:18.684Z,99
2022-08-17T04:04:27.869Z,99
2022-08-17T04:05:37.047Z,98.5
2022-08-17T04:06:46.204Z,98.5
2022-08-17T04:07:55.374Z,99
2022-08-17T04:09:04.553Z,98.5
2022-08-17T04:10:13.728Z,99
2022-08-17T04:11:22.892Z,99
2022-08-17T04:12:32.066Z,99
2022-08-17T04:13:41.257Z,99
2022-08-17T04:14:50.412Z,98.5
2022-08-17T04:15:59.600Z,98.5
2022-08-17T04:17:08.768Z,98
2022-08-17T04:18:16.951Z,98
2022-08-17T04:19:26.114Z,98
2022-08-17T04:20:35.294Z,98
2022-08-17T04:21:44.484Z,98
2022-08-17T04:22:53.635Z,98
2022-08-17T04:24:02.808Z,98
2022-08-17T04:25:11.987Z,98.5
2022-08-17T04:26:21.149Z,98.5
2022-08-17T04:27:30.332Z,98.5
2022-08-17T04:28:39.495Z,98
2022-08-17T04:29:48.685Z,98.5
2022-08-17T04:30:57.844Z,99
2022-08-17T04:32:07.028Z,99
2022-08-17T04:33:15.208Z,99
2022-08-17T04:34:24.378Z,99
2022-08-17T04:35:33.553Z,98.5
2022-08-17T04:36:42.718Z,98.5
2022-08-17T04:37:51.900Z,98.5
2022-08-17T04:39:01.076Z,98.5
2022-08-17T04:41:19.417Z,98.5
2022-08-17T04:42:28.585Z,98
2022-08-17T04:44:46.936Z,97
2022-08-17T04:45:56.104Z,97
2022-08-17T04:47:05.291Z,96.5
2022-08-17T04:48:13.464Z,97
2022-08-17T04:49:22.632Z,97
2022-08-17T04:50:31.808Z,97
2022-08-17T04:51:40.989Z,96.5
2022-08-17T04:52:50.160Z,96.5
2022-08-17T04:53:59.343Z,96
2022-08-17T04:55:08.498Z,96
2022-08-17T04:56:17.665Z,96
2022-08-17T04:57:26.841Z,95.5
2022-08-17T04:58:36.015Z,95.5
2022-08-17T04:59:45.194Z,95.5
2022-08-17T05:00:54.360Z,95.5
2022-08-17T05:02:03.527Z,96
2022-08-17T05:03:11.718Z,95.5
2022-08-17T05:04:20.896Z,95.5
2022-08-17T05:05:30.064Z,95
2022-08-17T05:06:39.241Z,95
2022-08-17T05:07:48.411Z,95.5
2022-08-17T05:08:57.584Z,95
2022-08-17T05:10:06.755Z,94.5
2022-08-17T05:11:15.926Z,94.5
2022-08-17T05:12:25.096Z,94
2022-08-17T05:13:34.280Z,93.5
2022-08-17T05:14:43.445Z,93.5
2022-08-17T05:15:52.619Z,94
2022-08-17T05:18:10.978Z,93.5
2022-08-17T05:19:19.159Z,93
2022-08-17T05:20:28.323Z,92.5
2022-08-17T05:21:37.505Z,92.5
2022-08-17T05:22:46.675Z,92.5
2022-08-17T05:23:55.851Z,92.5
2022-08-17T05:25:05.022Z,92.5
2022-08-17T05:26:14.192Z,94
2022-08-17T05:27:23.365Z,92.5
2022-08-17T05:28:32.530Z,91.5
2022-08-17T05:29:41.705Z,91.5
2022-08-17T05:30:50.878Z,91.5
2022-08-17T05:32:00.062Z,91.5
2022-08-17T05:33:09.239Z,90.5
2022-08-17T05:34:17.412Z,90.5
2022-08-17T05:35:26.591Z,90.5
2022-08-17T05:36:35.755Z,90.5
2022-08-17T05:37:44.956Z,90.5
2022-08-17T05:38:54.104Z,90.5
2022-08-17T05:40:03.290Z,90.5
2022-08-17T05:41:12.447Z,90.5
2022-08-17T05:42:21.630Z,90
2022-08-17T05:43:30.793Z,89.5
2022-08-17T05:44:39.980Z,88.5
2022-08-17T05:45:49.141Z,88.5
2022-08-17T05:46:58.327Z,89.5
2022-08-17T05:48:07.487Z,88.5
2022-08-17T05:49:15.683Z,87
2022-08-17T05:50:24.858Z,87
2022-08-17T05:51:34.024Z,86
2022-08-17T05:52:43.220Z,85.5
2022-08-17T05:53:52.363Z,84.5
2022-08-17T05:55:01.568Z,83.5
2022-08-17T05:56:10.710Z,82.5
2022-08-17T05:57:19.877Z,82
2022-08-17T05:58:29.057Z,83.5
2022-08-17T05:59:38.232Z,79
2022-08-17T06:00:47.400Z,79.5
2022-08-17T06:01:56.579Z,78.5
2022-08-17T06:03:05.756Z,78
2022-08-17T06:04:13.936Z,78.5
2022-08-17T06:05:23.101Z,78
2022-08-17T06:06:32.278Z,77.5
2022-08-17T06:07:41.450Z,77
2022-08-17T06:08:50.622Z,78.5
2022-08-17T06:09:59.801Z,78
2022-08-17T06:11:08.971Z,77.5
2022-08-17T06:12:18.144Z,77
2022-08-17T06:13:27.311Z,76.5
2022-08-17T06:14:36.489Z,77
2022-08-17T06:15:45.663Z,76
2022-08-17T06:16:54.826Z,76
2022-08-17T06:18:03.999Z,76
2022-08-17T06:19:12.191Z,76.5
2022-08-17T06:20:21.364Z,79.5
2022-08-17T06:21:30.537Z,76.5
2022-08-17T06:22:39.718Z,77
2022-08-17T06:23:48.873Z,76.5
2022-08-17T06:26:07.219Z,75.5
2022-08-17T06:27:16.398Z,75.5
2022-08-17T06:28:25.572Z,76
2022-08-17T06:29:34.741Z,76
2022-08-17T06:30:43.922Z,76
2022-08-17T06:31:53.083Z,74
2022-08-17T06:33:02.261Z,75
2022-08-17T06:34:10.446Z,75
2022-08-17T06:35:19.618Z,76
2022-08-17T06:36:28.794Z,75.5
2022-08-17T06:37:37.957Z,77
2022-08-17T06:38:47.132Z,75.5
2022-08-17T06:39:56.316Z,74.5
2022-08-17T06:41:05.477Z,75
2022-08-17T06:42:14.650Z,77.5
2022-08-17T06:43:23.826Z,74.5
2022-08-17T06:44:32.996Z,76.5
2022-08-17T06:45:42.171Z,75.5
2022-08-17T06:46:51.341Z,73.5
2022-08-17T06:48:00.519Z,73.5
2022-08-17T06:49:08.705Z,74
2022-08-17T06:50:17.878Z,74.5
2022-08-17T06:51:27.047Z,74.5
2022-08-17T06:52:36.225Z,74.5
2022-08-17T06:53:45.387Z,75.5
2022-08-17T06:54:54.579Z,75
2022-08-17T06:56:03.789Z,75
2022-08-17T06:57:12.913Z,73.5
2022-08-17T06:58:22.093Z,74
2022-08-17T06:59:31.254Z,73.5
2022-08-17T07:00:40.432Z,73
2022-08-17T07:01:49.606Z,71.5
2022-08-17T07:02:58.776Z,71.5
2022-08-17T07:04:06.958Z,72
2022-08-17T07:05:16.135Z,72
2022-08-17T07:06:25.312Z,71
2022-08-17T07:07:34.482Z,70.5
2022-08-17T07:08:43.655Z,69
2022-08-17T07:09:52.823Z,68
2022-08-17T07:12:11.167Z,67.5
2022-08-17T07:13:20.336Z,67.5
2022-08-17T07:14:29.518Z,67.5
2022-08-17T07:15:38.687Z,66
2022-08-17T07:16:47.866Z,65.5
2022-08-17T07:17:57.031Z,69.5
2022-08-17T07:19:05.226Z,65
2022-08-17T07:20:14.397Z,67
2022-08-17T07:21:23.557Z,64.5
2022-08-17T07:22:32.738Z,66
2022-08-17T07:23:41.912Z,65.5
2022-08-17T07:24:51.080Z,65.5
2022-08-17T07:26:00.248Z,64.5
2022-08-17T07:27:09.423Z,64.5
2022-08-17T07:28:18.609Z,64
2022-08-17T07:29:27.776Z,63
2022-08-17T07:30:36.942Z,62
2022-08-17T07:31:46.116Z,62.5
2022-08-17T07:32:55.302Z,62
2022-08-17T07:34:03.483Z,61.5
2022-08-17T07:35:12.650Z,63
2022-08-17T07:36:21.825Z,60.5
2022-08-17T07:37:30.998Z,60.5
2022-08-17T07:38:40.175Z,59.5
2022-08-17T07:39:49.366Z,60
2022-08-17T07:40:58.525Z,59.5
2022-08-17T07:42:07.676Z,59
2022-08-17T07:43:16.854Z,57.5
2022-08-17T07:44:26.031Z,58.5
2022-08-17T07:45:35.213Z,58.5
2022-08-17T07:46:44.394Z,57.5
2022-08-17T07:47:53.552Z,57
2022-08-17T07:49:01.734Z,58.5
2022-08-17T07:50:10.916Z,59
2022-08-17T07:51:19.119Z,59
2022-08-17T07:52:28.284Z,57.5
2022-08-17T07:53:37.455Z,58
2022-08-17T07:54:46.629Z,59
2022-08-17T07:55:55.796Z,58.5
2022-08-17T07:57:04.979Z,60.5
2022-08-17T07:58:14.147Z,60.5
2022-08-17T07:59:23.318Z,62
2022-08-17T08:00:32.493Z,61
2022-08-17T08:01:41.667Z,62
2022-08-17T08:02:50.833Z,63
2022-08-17T08:04:00.023Z,60.5
2022-08-17T08:05:09.176Z,60.5
2022-08-17T08:06:17.376Z,62.5
2022-08-17T08:07:26.539Z,62.5
2022-08-17T08:08:35.715Z,63
2022-08-17T08:09:44.889Z,61
2022-08-17T08:10:54.061Z,62
2022-08-17T08:12:03.225Z,61.5
2022-08-17T08:13:12.400Z,61
2022-08-17T08:14:21.573Z,60
2022-08-17T08:15:30.755Z,59
2022-08-17T08:16:39.919Z,58.5
2022-08-17T08:17:49.085Z,58
2022-08-17T08:18:58.261Z,59
2022-08-17T08:20:07.444Z,59.5
2022-08-17T08:21:15.626Z,59.5
2022-08-17T08:22:24.792Z,60
2022-08-17T08:23:33.966Z,59.5
2022-08-17T08:24:43.139Z,60
2022-08-17T08:25:52.318Z,59.5
2022-08-17T08:27:01.479Z,60
2022-08-17T08:28:10.653Z,59
2022-08-17T08:29:19.830Z,59.5
2022-08-17T08:30:28.999Z,58.5
2022-08-17T08:31:38.175Z,59
2022-08-17T08:32:47.358Z,59.5
2022-08-17T08:33:56.515Z,59
2022-08-17T08:35:05.685Z,58.5
2022-08-17T08:36:13.894Z,58.5
2022-08-17T08:37:23.055Z,59
2022-08-17T08:38:32.240Z,59.5
2022-08-17T08:39:41.397Z,60
2022-08-17T08:40:50.579Z,60
2022-08-17T08:42:01.098Z,60.5
2022-08-17T08:43:08.913Z,61.5
2022-08-17T08:44:18.087Z,60.5
2022-08-17T08:45:27.270Z,60
2022-08-17T08:46:36.440Z,60
2022-08-17T08:47:45.615Z,60
2022-08-17T08:48:54.780Z,59.5
2022-08-17T08:50:03.958Z,59.5
2022-08-17T08:51:12.135Z,59.5
2022-08-17T08:52:21.310Z,60
2022-08-17T08:53:30.490Z,57
2022-08-17T08:54:39.649Z,58.5
2022-08-17T08:55:48.826Z,57
2022-08-17T08:56:58.016Z,56.5
2022-08-17T08:58:07.183Z,56
2022-08-17T08:59:16.350Z,56.5
2022-08-17T09:00:25.518Z,55.5
2022-08-17T09:01:34.693Z,54
2022-08-17T09:02:43.872Z,53
2022-08-17T09:05:02.207Z,54.5
2022-08-17T09:06:10.394Z,55
2022-08-17T09:07:19.574Z,52.5
2022-08-17T09:08:28.744Z,52.5
2022-08-17T09:09:37.936Z,51.5
2022-08-17T09:10:47.092Z,51
2022-08-17T09:11:56.270Z,50
2022-08-17T09:13:05.433Z,51
2022-08-17T09:14:14.601Z,52
2022-08-17T09:15:23.776Z,51.5
2022-08-17T09:16:32.953Z,52
2022-08-17T09:17:42.134Z,54.5
2022-08-17T09:18:51.305Z,52
2022-08-17T09:20:00.476Z,52.5
2022-08-17T09:21:08.647Z,51.5
2022-08-17T09:22:17.834Z,53
2022-08-17T09:23:27.012Z,52.5
2022-08-17T09:24:36.178Z,52
2022-08-17T09:25:45.353Z,53
2022-08-17T09:26:54.523Z,55
2022-08-17T09:28:03.703Z,52
2022-08-17T09:29:12.874Z,52.5
2022-08-17T09:30:22.041Z,53
2022-08-17T09:31:31.207Z,53
2022-08-17T09:32:40.397Z,51
2022-08-17T09:33:49.550Z,53
2022-08-17T09:34:58.734Z,49.5
2022-08-17T09:36:06.915Z,50
2022-08-17T09:37:16.098Z,48.5
2022-08-17T09:38:25.256Z,50
2022-08-17T09:39:34.436Z,51
2022-08-17T09:40:43.605Z,52
2022-08-17T09:41:52.782Z,51
2022-08-17T09:43:01.966Z,51.5
2022-08-17T09:44:11.123Z,52.5
2022-08-17T09:45:20.292Z,53
2022-08-17T09:46:29.461Z,52.5
2022-08-17T09:47:38.645Z,53.5
2022-08-17T09:48:47.807Z,54
2022-08-17T09:49:56.989Z,54
2022-08-17T09:51:05.172Z,54.5
2022-08-17T09:52:14.372Z,54.5
2022-08-17T09:53:23.528Z,52.5
2022-08-17T09:54:32.693Z,51.5
2022-08-17T09:55:41.856Z,50.5
2022-08-17T09:56:51.039Z,50
2022-08-17T09:58:00.210Z,50
2022-08-17T09:59:09.377Z,49.5
2022-08-17T10:00:18.557Z,49.5
2022-08-17T10:01:27.726Z,49
2022-08-17T10:02:36.902Z,49
2022-08-17T10:03:46.069Z,50.5
2022-08-17T10:04:55.247Z,50.5
2022-08-17T10:06:03.443Z,51.5
2022-08-17T10:07:12.607Z,52
2022-08-17T10:08:21.779Z,51.5
2022-08-17T10:09:30.950Z,53
2022-08-17T10:10:40.118Z,52
2022-08-17T10:11:49.284Z,52.5
2022-08-17T10:12:58.461Z,52.5
2022-08-17T10:14:07.636Z,51
2022-08-17T10:15:16.811Z,50.5
2022-08-17T10:16:25.977Z,49
2022-08-17T10:17:35.156Z,49.5
2022-08-17T10:18:44.326Z,49
2022-08-17T10:19:53.500Z,49
2022-08-17T10:21:01.693Z,50
2022-08-17T10:22:10.861Z,50
2022-08-17T10:23:20.031Z,53
2022-08-17T10:24:29.206Z,52
2022-08-17T10:25:38.380Z,52.5
2022-08-17T10:26:47.553Z,51
2022-08-17T10:27:56.732Z,52
2022-08-17T10:29:05.891Z,52
2022-08-17T10:30:15.070Z,54
2022-08-17T10:31:24.245Z,51.5
2022-08-17T10:32:33.416Z,52.5
2022-08-17T10:33:42.585Z,53.5
2022-08-17T10:34:51.769Z,52.5
2022-08-17T10:35:59.950Z,52.5
2022-08-17T10:37:09.120Z,52
2022-08-17T10:38:18.292Z,54.5
2022-08-17T10:39:27.484Z,52
2022-08-17T10:40:36.637Z,50.5
2022-08-17T10:41:45.815Z,51
2022-08-17T10:42:54.968Z,52
2022-08-17T10:44:04.140Z,51
2022-08-17T10:45:13.329Z,51.5
2022-08-17T10:46:22.497Z,51.5
2022-08-17T10:47:31.668Z,53
2022-08-17T10:48:40.872Z,52.5
2022-08-17T10:49:50.013Z,53
2022-08-17T10:50:58.205Z,52
2022-08-17T10:52:07.376Z,51.5
2022-08-17T10:53:16.546Z,51.5
2022-08-17T10:54:25.714Z,51.5
2022-08-17T10:55:34.885Z,51
2022-08-17T10:56:44.061Z,51
2022-08-17T10:57:53.225Z,52
2022-08-17T10:59:02.413Z,52
2022-08-17T11:00:11.585Z,50
2022-08-17T11:01:20.764Z,50
2022-08-17T11:02:29.930Z,52
2022-08-17T11:03:39.107Z,52.5
2022-08-17T11:04:48.277Z,52.5
2022-08-17T11:05:56.459Z,51.5
2022-08-17T11:07:05.636Z,51.5
2022-08-17T11:08:14.806Z,49.5
2022-08-17T11:09:23.965Z,50
2022-08-17T11:10:33.143Z,50.5
2022-08-17T11:11:42.321Z,50
2022-08-17T11:12:51.499Z,50
2022-08-17T11:14:00.663Z,50.5
2022-08-17T11:15:09.838Z,51.5
2022-08-17T11:16:19.010Z,51
2022-08-17T11:17:28.179Z,51.5
2022-08-17T11:18:37.350Z,52
2022-08-17T11:19:46.537Z,51.5
2022-08-17T11:20:54.713Z,52
2022-08-17T11:22:03.902Z,52.5
2022-08-17T11:23:13.058Z,52
2022-08-17T11:24:22.220Z,53
2022-08-17T11:25:31.414Z,53.5
2022-08-17T11:26:40.580Z,52.5
2022-08-17T11:27:49.788Z,54
2022-08-17T11:28:58.916Z,52
2022-08-17T11:30:08.096Z,52
2022-08-17T11:31:17.265Z,52.5
2022-08-17T11:32:26.444Z,52.5
2022-08-17T11:33:35.607Z,51
2022-08-17T11:34:44.785Z,52.5
2022-08-17T11:35:52.965Z,50.5
2022-08-17T11:37:02.149Z,49.5
2022-08-17T11:38:11.312Z,50
2022-08-17T11:39:20.484Z,52.5
2022-08-17T11:40:29.656Z,52.5
2022-08-17T11:41:38.843Z,51.5
2022-08-17T11:42:47.041Z,50.5
2022-08-17T11:43:56.204Z,51.5
2022-08-17T11:45:05.368Z,49
2022-08-17T11:46:14.556Z,51
2022-08-17T11:47:23.724Z,50.5
2022-08-17T11:48:32.880Z,52.5
2022-08-17T11:49:42.058Z,52.5
2022-08-17T11:50:51.235Z,52.5
2022-08-17T11:52:00.409Z,52
2022-08-17T11:53:09.582Z,52.5
2022-08-17T11:54:18.747Z,53.5
2022-08-17T11:55:27.923Z,54
2022-08-17T11:56:37.103Z,54
2022-08-17T11:57:45.296Z,50.5
2022-08-17T11:58:54.460Z,51.5
2022-08-17T12:00:03.637Z,51.5
2022-08-17T12:01:12.808Z,51.5
2022-08-17T12:02:21.966Z,54
2022-08-17T12:03:31.151Z,53.5
2022-08-17T12:04:40.321Z,54
2022-08-17T12:05:49.504Z,54
2022-08-17T12:06:58.665Z,52
2022-08-17T12:08:07.873Z,53
2022-08-17T12:09:17.017Z,52.5
2022-08-17T12:10:26.180Z,53.5
2022-08-17T12:11:35.368Z,54
2022-08-17T12:12:43.539Z,53
2022-08-17T12:13:52.723Z,54
2022-08-17T12:15:01.890Z,54.5
2022-08-17T12:16:11.076Z,54.5
2022-08-17T12:17:20.240Z,55
2022-08-17T12:18:29.417Z,59
2022-08-17T12:19:38.581Z,62
2022-08-17T12:20:47.768Z,64
2022-08-17T12:21:56.945Z,67.5
2022-08-17T12:23:06.093Z,72
2022-08-17T12:24:15.275Z,72.5
2022-08-17T12:25:24.445Z,78.5
2022-08-17T12:26:33.615Z,79.5
2022-08-17T12:27:41.809Z,83.5
2022-08-17T12:28:50.977Z,84.5
2022-08-17T12:30:00.159Z,87
2022-08-17T12:31:09.315Z,90.5
2022-08-17T12:32:18.493Z,90.5
2022-08-17T12:33:27.659Z,93
2022-08-17T12:34:36.857Z,93.5
2022-08-17T12:35:46.013Z,93
2022-08-17T12:36:55.175Z,89
2022-08-17T12:38:04.357Z,88.5
2022-08-17T12:39:13.535Z,86
2022-08-17T12:40:22.710Z,92
2022-08-17T12:41:31.869Z,92
2022-08-17T12:42:40.056Z,90.5
2022-08-17T12:43:49.234Z,83
2022-08-17T12:44:58.406Z,84.5
2022-08-17T12:46:07.583Z,80.5
2022-08-17T12:47:16.759Z,79.5
2022-08-17T12:48:25.927Z,80.5
2022-08-17T12:49:35.097Z,81
2022-08-17T12:50:44.266Z,81.5
2022-08-17T12:51:53.442Z,81
2022-08-17T12:53:02.608Z,82
2022-08-17T12:54:11.785Z,82
2022-08-17T12:55:20.957Z,82.5
2022-08-17T12:56:30.126Z,82.5
2022-08-17T12:57:38.310Z,84
2022-08-17T12:58:47.502Z,85.5
2022-08-17T12:59:56.662Z,83.5
2022-08-17T13:01:05.834Z,81
2022-08-17T13:02:15.006Z,80.5
2022-08-17T13:03:24.176Z,80
2022-08-17T13:04:33.349Z,80.5
2022-08-17T13:05:42.531Z,81.5
2022-08-17T13:06:51.701Z,76.5
2022-08-17T13:08:00.864Z,77
2022-08-17T13:09:10.046Z,77
2022-08-17T13:10:19.214Z,76
2022-08-17T13:11:28.385Z,79
2022-08-17T13:12:36.579Z,77
2022-08-17T13:13:45.745Z,75.5
2022-08-17T13:14:54.924Z,76.5
2022-08-17T13:16:04.106Z,74.5
2022-08-17T13:17:13.278Z,72.5
2022-08-17T13:18:22.464Z,74.5
2022-08-17T13:20:40.786Z,77
2022-08-17T13:21:49.969Z,70.5
2022-08-17T13:22:59.142Z,69
2022-08-17T13:24:08.311Z,71
2022-08-17T13:25:17.475Z,69.5
2022-08-17T13:26:26.666Z,69.5
2022-08-17T13:27:34.848Z,69.5
2022-08-17T13:28:44.010Z,69
2022-08-17T13:29:53.188Z,68.5
2022-08-17T13:31:02.363Z,71.5
2022-08-17T13:32:11.537Z,70
2022-08-17T13:33:20.702Z,69
2022-08-17T13:34:29.876Z,71
2022-08-17T13:35:39.055Z,71
2022-08-17T13:36:48.224Z,73
2022-08-17T13:37:57.377Z,71
2022-08-17T13:39:06.554Z,74.5
2022-08-17T13:40:15.728Z,75.5
2022-08-17T13:41:24.909Z,73.5
2022-08-17T13:42:33.090Z,74.5
2022-08-17T13:43:42.257Z,76
2022-08-17T13:44:51.434Z,74
2022-08-17T13:46:00.604Z,72.5
2022-08-17T13:47:09.779Z,72
2022-08-17T13:48:18.956Z,71
2022-08-17T13:49:28.121Z,74.5
2022-08-17T13:50:37.293Z,70
2022-08-17T13:51:46.481Z,70
2022-08-17T13:52:55.665Z,71.5
2022-08-17T13:54:04.823Z,64
2022-08-17T13:55:14.016Z,73.5
2022-08-17T13:56:23.158Z,67.5
2022-08-17T13:57:31.357Z,70
2022-08-17T13:58:40.525Z,71.5
2022-08-17T13:59:49.711Z,69.5
2022-08-17T14:00:58.871Z,67
2022-08-17T14:02:08.043Z,63.5
2022-08-17T14:03:17.220Z,66
2022-08-17T14:04:26.389Z,62
2022-08-17T14:05:35.564Z,60.5
2022-08-17T14:06:44.739Z,63
2022-08-17T14:07:53.906Z,62.5
2022-08-17T14:09:03.082Z,63.5
2022-08-17T14:10:12.247Z,61
2022-08-17T14:11:21.409Z,60.5
2022-08-17T14:12:29.603Z,59.5
2022-08-17T14:13:38.778Z,59.5
2022-08-17T14:14:47.956Z,60
2022-08-17T14:15:57.128Z,59
2022-08-17T14:17:06.312Z,59
2022-08-17T14:18:15.475Z,57
2022-08-17T14:19:24.640Z,60.5
2022-08-17T14:20:33.809Z,59.5
2022-08-17T14:21:42.983Z,62.5
2022-08-17T14:22:52.162Z,61
2022-08-17T14:24:01.336Z,56
2022-08-17T14:25:10.510Z,54.5
2022-08-17T14:26:19.678Z,55
2022-08-17T14:27:27.868Z,54
2022-08-17T14:28:37.043Z,53.5
2022-08-17T14:29:46.215Z,53
2022-08-17T14:30:55.389Z,52
2022-08-17T14:32:04.564Z,54
2022-08-17T14:33:13.728Z,57
2022-08-17T14:34:22.910Z,54.5
2022-08-17T14:35:32.082Z,52.5
2022-08-17T14:36:41.252Z,53
2022-08-17T14:37:50.435Z,51.5
2022-08-17T14:38:59.620Z,49.5
2022-08-17T14:40:08.777Z,49
2022-08-17T14:41:17.944Z,49
2022-08-17T14:42:26.127Z,48
2022-08-17T14:43:35.325Z,46.5
2022-08-17T14:44:44.483Z,47
2022-08-17T14:45:53.663Z,49
2022-08-17T14:47:02.848Z,50
2022-08-17T14:48:12.002Z,51.5
2022-08-17T14:49:21.171Z,50.5
2022-08-17T14:50:30.349Z,52
2022-08-17T14:51:39.526Z,52
2022-08-17T14:52:48.684Z,54.5
2022-08-17T14:53:57.871Z,56.5
2022-08-17T14:55:07.047Z,57.5
2022-08-17T14:56:16.208Z,57
2022-08-17T14:57:24.401Z,58
2022-08-17T14:58:33.573Z,59
2022-08-17T14:59:42.748Z,56
2022-08-17T15:00:51.925Z,55
2022-08-17T15:02:01.114Z,53
2022-08-17T15:03:10.266Z,53.5
2022-08-17T15:04:19.452Z,53.5
2022-08-17T15:05:28.603Z,54.5
2022-08-17T15:06:37.798Z,53
2022-08-17T15:07:46.966Z,53
2022-08-17T15:08:56.133Z,53
2022-08-17T15:10:05.309Z,53
2022-08-17T15:11:14.491Z,51
2022-08-17T15:12:23.663Z,50
2022-08-17T15:13:31.841Z,49
2022-08-17T15:14:41.012Z,48
2022-08-17T15:15:50.179Z,48.5
2022-08-17T15:16:59.362Z,49.5
2022-08-17T15:18:08.538Z,50.5
2022-08-17T15:19:17.716Z,51.5
2022-08-17T15:20:26.889Z,50.5
2022-08-17T15:21:36.063Z,48.5
2022-08-17T15:22:45.228Z,49
2022-08-17T15:25:03.571Z,47.5
2022-08-17T15:26:12.741Z,46.5
2022-08-17T15:27:21.909Z,48.5
2022-08-17T15:28:30.104Z,52
2022-08-17T15:29:39.289Z,51.5
2022-08-17T15:30:48.456Z,52.5
2022-08-17T15:31:57.631Z,55
2022-08-17T15:33:06.803Z,50
2022-08-17T15:34:14.995Z,50
2022-08-17T15:35:24.178Z,49.5
2022-08-17T15:36:33.338Z,48
2022-08-17T15:37:42.507Z,48
2022-08-17T15:38:51.678Z,49
2022-08-17T15:40:00.859Z,52
2022-08-17T15:41:10.040Z,54
2022-08-17T15:42:19.205Z,55.5
2022-08-17T15:43:28.373Z,55
2022-08-17T15:44:37.551Z,55.5
2022-08-17T15:45:46.724Z,55
2022-08-17T15:46:55.911Z,56
2022-08-17T15:48:05.078Z,57.5
2022-08-17T15:49:13.260Z,57
2022-08-17T15:50:22.432Z,56.5
2022-08-17T15:51:31.633Z,58
2022-08-17T15:52:40.785Z,61
2022-08-17T15:53:49.958Z,61
2022-08-17T15:54:59.140Z,61
2022-08-17T15:56:08.307Z,61.5
2022-08-17T15:57:17.472Z,62.5
2022-08-17T15:58:26.651Z,64.5
2022-08-17T15:59:35.817Z,64